createdAt,value
2019-01-27T00:00:32.222Z,26.27
2019-01-27T00:03:01.422Z,27.00
2019-01-27T00:05:30.248Z,27.37
2019-01-27T00:07:58.969Z,34.40
2019-01-27T00:10:27.816Z,30.17
2019-01-27T00:12:56.557Z,28.20
2019-01-27T00:15:25.482Z,24.27
2019-01-27T00:17:54.269Z,25.50
2019-01-27T00:20:24.392Z,24.33
2019-01-27T00:22:53.114Z,24.17
2019-01-27T00:25:21.879Z,25.40
2019-01-27T00:27:50.599Z,24.37
2019-01-27T00:30:23.811Z,22.93
2019-01-27T00:32:52.583Z,22.50
2019-01-27T00:35:21.313Z,23.53
2019-01-27T00:37:50.025Z,22.47
2019-01-27T00:40:19.530Z,19.03
2019-01-27T00:42:48.256Z,18.87
2019-01-27T00:45:18.982Z,23.10
2019-01-27T00:47:47.863Z,25.20
2019-01-27T00:50:22.655Z,25.87
2019-01-27T00:52:51.377Z,24.37
2019-01-27T00:55:22.305Z,25.50
2019-01-27T00:57:51.132Z,25.30
2019-01-27T01:00:29.752Z,25.67
2019-01-27T01:02:58.479Z,24.63
2019-01-27T01:05:27.194Z,23.33
2019-01-27T01:07:56.056Z,25.63
2019-01-27T01:10:25.181Z,25.40
2019-01-27T01:12:54.002Z,23.80
2019-01-27T01:15:23.375Z,24.63
2019-01-27T01:17:52.094Z,22.13
2019-01-27T01:20:22.221Z,23.83
2019-01-27T01:22:52.206Z,26.47
2019-01-27T01:25:23.382Z,22.70
2019-01-27T01:27:52.800Z,25.20
2019-01-27T01:30:24.726Z,24.90
2019-01-27T01:32:53.443Z,24.67
2019-01-27T01:35:22.268Z,25.80
2019-01-27T01:37:51.119Z,23.47
2019-01-27T01:40:20.438Z,24.80
2019-01-27T01:42:49.168Z,26.60
2019-01-27T01:45:29.452Z,24.30
2019-01-27T01:47:58.269Z,24.53
2019-01-27T01:50:26.992Z,26.70
2019-01-27T01:52:55.988Z,23.27
2019-01-27T01:55:24.910Z,26.77
2019-01-27T01:57:53.628Z,26.70
2019-01-27T02:00:28.269Z,25.60
2019-01-27T02:02:57.086Z,26.53
2019-01-27T02:05:25.798Z,27.07
2019-01-27T02:07:54.930Z,26.83
2019-01-27T02:10:24.165Z,25.07
2019-01-27T02:12:53.584Z,25.50
2019-01-27T02:15:31.327Z,24.77
2019-01-27T02:18:00.040Z,25.80
2019-01-27T02:20:28.807Z,25.10
2019-01-27T02:22:57.723Z,24.57
2019-01-27T02:25:26.443Z,24.60
2019-01-27T02:27:55.163Z,25.03
2019-01-27T02:30:24.366Z,26.27
2019-01-27T02:32:53.093Z,22.23
2019-01-27T02:35:21.816Z,25.53
2019-01-27T02:37:50.947Z,24.80
2019-01-27T02:40:19.869Z,21.23
2019-01-27T02:42:48.600Z,21.33
2019-01-27T02:45:19.156Z,22.43
2019-01-27T02:47:47.886Z,23.30
2019-01-27T02:50:16.598Z,25.63
2019-01-27T02:52:45.473Z,24.17
2019-01-27T02:55:14.293Z,24.40
2019-01-27T02:57:43.023Z,23.20
2019-01-27T03:00:20.552Z,24.13
2019-01-27T03:02:49.271Z,21.93
2019-01-27T03:05:25.281Z,23.83
2019-01-27T03:07:54.431Z,24.03
2019-01-27T03:10:23.201Z,20.97
2019-01-27T03:12:51.921Z,22.60
2019-01-27T03:15:20.884Z,23.83
2019-01-27T03:17:49.604Z,24.53
2019-01-27T03:20:18.333Z,23.33
2019-01-27T03:22:47.121Z,24.23
2019-01-27T03:25:17.647Z,23.87
2019-01-27T03:27:46.374Z,25.57
2019-01-27T03:30:20.981Z,24.53
2019-01-27T03:32:49.712Z,24.10
2019-01-27T03:35:19.034Z,23.87
2019-01-27T03:37:48.164Z,22.47
2019-01-27T03:40:20.868Z,24.83
2019-01-27T03:42:49.687Z,24.83
2019-01-27T03:45:19.797Z,24.60
2019-01-27T03:47:48.615Z,24.70
2019-01-27T03:50:21.591Z,25.73
2019-01-27T03:52:50.669Z,25.67
2019-01-27T03:55:21.690Z,24.13
2019-01-27T03:57:50.416Z,23.53
2019-01-27T04:00:21.840Z,24.67
2019-01-27T04:02:50.561Z,25.93
2019-01-27T04:05:20.085Z,25.20
2019-01-27T04:07:48.972Z,23.50
2019-01-27T04:10:25.993Z,23.00
2019-01-27T04:12:55.008Z,24.97
2019-01-27T04:15:23.735Z,22.70
2019-01-27T04:17:52.556Z,22.93
2019-01-27T04:20:22.513Z,23.50
2019-01-27T04:22:51.326Z,23.07
2019-01-27T04:25:20.447Z,24.60
2019-01-27T04:27:49.287Z,27.43
2019-01-27T04:30:26.674Z,28.03
2019-01-27T04:32:55.553Z,28.87
2019-01-27T04:35:24.264Z,23.33
2019-01-27T04:37:52.990Z,19.77
2019-01-27T04:40:23.568Z,20.70
2019-01-27T04:42:52.282Z,22.27
2019-01-27T04:45:25.718Z,22.73
2019-01-27T04:47:54.593Z,21.60
2019-01-27T04:50:23.314Z,24.30
2019-01-27T04:52:52.065Z,25.30
2019-01-27T04:55:21.901Z,24.90
2019-01-27T04:57:50.618Z,26.43
2019-01-27T05:00:28.453Z,25.43
2019-01-27T05:03:14.928Z,30.33
2019-01-27T05:05:43.821Z,26.73
2019-01-27T05:08:12.594Z,25.10
2019-01-27T05:10:41.435Z,28.07
2019-01-27T05:13:10.348Z,27.40
2019-01-27T05:15:39.069Z,27.07
2019-01-27T05:18:07.797Z,25.53
2019-01-27T05:20:36.646Z,28.20
2019-01-27T05:23:05.359Z,28.73
2019-01-27T05:25:34.084Z,28.23
2019-01-27T05:28:04.076Z,27.23
2019-01-27T05:30:32.798Z,30.80
2019-01-27T05:33:01.516Z,29.90
2019-01-27T05:35:30.400Z,23.10
2019-01-27T05:37:59.117Z,21.30
2019-01-27T05:40:27.845Z,23.03
2019-01-27T05:42:56.695Z,22.97
2019-01-27T05:45:25.538Z,21.67
2019-01-27T05:47:54.240Z,23.67
2019-01-27T05:50:23.126Z,25.10
2019-01-27T05:52:51.848Z,23.23
2019-01-27T05:55:23.620Z,22.17
2019-01-27T05:57:52.484Z,24.87
2019-01-27T06:00:33.895Z,26.77
2019-01-27T06:03:04.259Z,34.87
2019-01-27T06:05:32.970Z,24.57
2019-01-27T06:08:01.691Z,23.83
2019-01-27T06:10:30.574Z,21.97
2019-01-27T06:12:59.305Z,20.80
2019-01-27T06:15:28.132Z,18.63
2019-01-27T06:17:57.017Z,19.83
2019-01-27T06:20:25.737Z,18.43
2019-01-27T06:22:54.455Z,19.03
2019-01-27T06:25:26.033Z,22.27
2019-01-27T06:27:53.693Z,17.83
2019-01-27T06:30:24.609Z,21.50
2019-01-27T06:32:56.407Z,19.67
2019-01-27T06:35:25.127Z,19.87
2019-01-27T06:37:53.848Z,19.13
2019-01-27T06:40:22.849Z,25.93
2019-01-27T06:42:51.553Z,22.83
2019-01-27T06:45:20.267Z,25.83
2019-01-27T06:47:49.046Z,29.80
2019-01-27T06:50:20.543Z,73.07
2019-01-27T06:52:49.272Z,172.23
2019-01-27T06:55:20.061Z,37.40
2019-01-27T06:57:48.788Z,194.60
2019-01-27T07:00:30.244Z,43.90
2019-01-27T07:03:09.354Z,29.27
2019-01-27T07:05:56.038Z,30.63
2019-01-27T07:08:26.332Z,21.10
2019-01-27T07:11:02.752Z,18.23
2019-01-27T07:13:39.025Z,17.57
2019-01-27T07:16:09.547Z,19.70
2019-01-27T07:18:42.706Z,19.13
2019-01-27T07:21:15.793Z,18.73
2019-01-27T07:24:01.862Z,18.00
2019-01-27T07:26:35.282Z,19.07
2019-01-27T07:29:14.623Z,20.37
2019-01-27T07:31:47.714Z,21.77
2019-01-27T07:34:27.024Z,20.37
2019-01-27T07:37:09.722Z,24.93
2019-01-27T07:39:40.019Z,22.87
2019-01-27T07:42:19.596Z,25.03
2019-01-27T07:44:49.885Z,20.00
2019-01-27T07:47:20.180Z,23.60
2019-01-27T07:49:53.416Z,24.57
2019-01-27T07:52:38.953Z,20.63
2019-01-27T07:55:24.530Z,20.80
2019-01-27T07:57:54.824Z,24.60
2019-01-27T08:00:34.864Z,27.50
2019-01-27T08:03:11.775Z,21.13
2019-01-27T08:05:40.405Z,22.50
2019-01-27T08:08:13.290Z,22.33
2019-01-27T08:10:45.180Z,21.83
2019-01-27T08:13:18.444Z,19.93
2019-01-27T08:15:58.237Z,19.47
2019-01-27T08:18:37.679Z,19.47
2019-01-27T08:21:08.135Z,20.33
2019-01-27T08:23:45.314Z,56.10
2019-01-27T08:26:21.470Z,38.70
2019-01-27T08:29:08.243Z,22.40
2019-01-27T08:31:47.551Z,31.77
2019-01-27T08:34:30.123Z,21.20
2019-01-27T08:37:12.641Z,19.30
2019-01-27T08:39:43.110Z,24.43
2019-01-27T08:42:19.453Z,20.20
2019-01-27T08:44:52.455Z,21.70
2019-01-27T08:47:21.182Z,19.67
2019-01-27T08:49:51.915Z,20.40
2019-01-27T08:52:20.636Z,21.57
2019-01-27T08:54:49.359Z,17.13
2019-01-27T08:57:18.143Z,19.50
2019-01-27T08:59:46.864Z,23.43
2019-01-27T09:02:33.335Z,23.40
2019-01-27T09:05:03.628Z,19.57
2019-01-27T09:07:36.682Z,21.07
2019-01-27T09:10:12.395Z,22.77
2019-01-27T09:12:54.599Z,22.87
2019-01-27T09:15:43.323Z,21.53
2019-01-27T09:18:47.959Z,18.67
2019-01-27T09:21:12.742Z,30.27
2019-01-27T09:23:43.033Z,26.10
2019-01-27T09:26:13.324Z,27.37
2019-01-27T09:28:46.653Z,16.53
2019-01-27T09:31:22.948Z,16.67
2019-01-27T09:33:59.591Z,31.87
2019-01-27T09:36:29.708Z,17.47
2019-01-27T09:39:16.489Z,19.57
2019-01-27T09:41:46.781Z,17.73
2019-01-27T09:44:35.353Z,17.80
2019-01-27T09:47:20.820Z,19.67
2019-01-27T09:49:59.908Z,57.47
2019-01-27T09:52:30.200Z,24.13
2019-01-27T09:55:12.912Z,38.67
2019-01-27T09:57:45.926Z,17.20
2019-01-27T10:00:19.254Z,23.13
2019-01-27T10:02:58.486Z,20.53
2019-01-27T10:05:28.851Z,19.13
2019-01-27T10:08:14.372Z,16.40
2019-01-27T10:11:01.384Z,17.23
2019-01-27T10:13:34.494Z,27.67
2019-01-27T10:16:07.745Z,20.23
2019-01-27T10:18:38.037Z,16.57
2019-01-27T10:21:08.386Z,25.67
2019-01-27T10:23:38.785Z,18.10
2019-01-27T10:26:09.071Z,15.07
2019-01-27T10:28:54.425Z,15.53
2019-01-27T10:31:30.832Z,16.93
2019-01-27T10:34:16.393Z,18.93
2019-01-27T10:36:46.683Z,16.80
2019-01-27T10:39:26.411Z,16.90
2019-01-27T10:42:02.467Z,28.87
2019-01-27T10:44:32.796Z,17.20
2019-01-27T10:47:09.343Z,24.70
2019-01-27T10:49:42.535Z,15.30
2019-01-27T10:52:12.880Z,34.73
2019-01-27T10:54:43.200Z,14.57
2019-01-27T10:57:30.269Z,14.90
2019-01-27T11:00:06.574Z,19.73
2019-01-27T11:02:37.975Z,14.30
2019-01-27T11:05:16.893Z,15.30
2019-01-27T11:07:49.964Z,17.07
2019-01-27T11:10:20.271Z,11.60
2019-01-27T11:12:50.591Z,10.13
2019-01-27T11:15:37.554Z,14.40
2019-01-27T11:18:17.034Z,48.67
2019-01-27T11:20:53.497Z,15.93
2019-01-27T11:23:29.552Z,181.30
2019-01-27T11:26:18.315Z,23.23
2019-01-27T11:28:51.349Z,21.80
2019-01-27T11:31:38.190Z,24.23
2019-01-27T11:34:11.484Z,49.83
2019-01-27T11:36:44.753Z,29.40
2019-01-27T11:39:18.037Z,14.50
2019-01-27T11:41:48.324Z,12.97
2019-01-27T11:44:21.814Z,98.70
2019-01-27T11:47:08.317Z,94.10
2019-01-27T11:49:38.656Z,15.67
2019-01-27T11:52:15.470Z,14.00
2019-01-27T11:54:40.637Z,13.60
2019-01-27T11:57:09.445Z,14.87
2019-01-27T11:59:38.173Z,14.47
2019-01-27T12:02:06.992Z,15.67
2019-01-27T12:04:35.766Z,16.10
2019-01-27T12:07:04.583Z,14.57
2019-01-27T12:09:33.310Z,14.30
2019-01-27T12:12:02.520Z,14.60
2019-01-27T12:14:31.254Z,15.20
2019-01-27T12:16:59.977Z,15.20
2019-01-27T12:19:28.861Z,15.60
2019-01-27T12:21:57.585Z,21.03
2019-01-27T12:24:26.317Z,15.00
2019-01-27T12:26:56.934Z,13.97
2019-01-27T12:29:25.679Z,24.00
2019-01-27T12:31:54.376Z,15.23
2019-01-27T12:34:23.153Z,14.80
2019-01-27T12:36:51.878Z,14.07
2019-01-27T12:39:20.613Z,13.93
2019-01-27T12:41:50.627Z,14.10
2019-01-27T12:44:19.379Z,13.80
2019-01-27T12:46:48.107Z,13.90
2019-01-27T12:49:16.879Z,14.40
2019-01-27T12:51:45.605Z,14.03
2019-01-27T12:54:14.337Z,14.50
2019-01-27T12:56:43.173Z,14.33
2019-01-27T12:59:11.898Z,13.53
2019-01-27T13:01:40.626Z,13.93
2019-01-27T13:04:09.817Z,14.40
2019-01-27T13:06:38.548Z,15.67
2019-01-27T13:09:08.176Z,14.93
2019-01-27T13:11:36.977Z,13.47
2019-01-27T13:14:05.803Z,14.47
2019-01-27T13:16:34.541Z,13.47
2019-01-27T13:19:03.319Z,15.43
2019-01-27T13:21:33.460Z,15.77
2019-01-27T13:24:02.179Z,15.20
2019-01-27T13:26:31.047Z,14.27
2019-01-27T13:28:59.775Z,13.53
2019-01-27T13:31:28.507Z,15.30
2019-01-27T13:33:57.385Z,13.77
2019-01-27T13:36:26.177Z,14.23
2019-01-27T13:38:54.916Z,14.33
2019-01-27T13:41:23.710Z,12.77
2019-01-27T13:43:52.455Z,14.17
2019-01-27T13:46:21.179Z,14.17
2019-01-27T13:48:49.933Z,14.53
2019-01-27T13:51:18.644Z,14.10
2019-01-27T13:53:47.380Z,13.07
2019-01-27T13:56:16.521Z,13.33
2019-01-27T13:58:45.567Z,13.47
2019-01-27T14:01:14.284Z,13.57
2019-01-27T14:03:43.075Z,13.33
2019-01-27T14:06:11.814Z,13.83
2019-01-27T14:08:40.544Z,14.10
2019-01-27T14:11:09.452Z,13.50
2019-01-27T14:13:38.186Z,13.33
2019-01-27T14:16:06.915Z,14.70
2019-01-27T14:21:50.836Z,13.23
2019-01-27T14:24:19.553Z,13.90
2019-01-27T14:26:48.413Z,13.30
2019-01-27T14:29:17.136Z,12.97
2019-01-27T14:31:45.862Z,14.93
2019-01-27T14:34:14.744Z,18.50
2019-01-27T14:36:43.478Z,18.13
2019-01-27T14:39:12.214Z,27.83
2019-01-27T14:41:41.086Z,15.43
2019-01-27T14:44:09.821Z,13.67
2019-01-27T14:46:38.557Z,19.47
2019-01-27T14:49:07.315Z,52.13
2019-01-27T14:51:36.041Z,41.10
2019-01-27T14:54:05.260Z,38.00
2019-01-27T14:56:34.058Z,26.50
2019-01-27T14:59:02.807Z,22.77
2019-01-27T15:01:31.530Z,26.03
2019-01-27T15:04:00.426Z,23.73
2019-01-27T15:06:29.128Z,22.33
2019-01-27T15:08:57.854Z,32.40
2019-01-27T15:11:26.635Z,40.07
2019-01-27T15:13:55.358Z,25.53
2019-01-27T15:16:27.197Z,19.83
2019-01-27T15:18:56.068Z,17.73
2019-01-27T15:21:24.788Z,19.57
2019-01-27T15:23:53.515Z,18.73
2019-01-27T15:26:22.315Z,23.80
2019-01-27T15:28:51.139Z,38.27
2019-01-27T15:31:19.915Z,91.60
2019-01-27T15:33:48.684Z,58.40
2019-01-27T15:36:17.406Z,47.30
2019-01-27T15:38:46.163Z,49.07
2019-01-27T15:41:15.068Z,50.97
2019-01-27T15:43:48.560Z,60.93
2019-01-27T15:46:14.288Z,72.70
2019-01-27T15:48:43.160Z,78.53
2019-01-27T15:51:11.886Z,77.53
2019-01-27T15:53:40.612Z,82.67
2019-01-27T15:56:10.080Z,75.17
2019-01-27T15:58:38.975Z,77.70
2019-01-27T16:01:07.705Z,75.67
2019-01-27T16:03:36.830Z,74.90
2019-01-27T16:06:06.158Z,89.57
2019-01-27T16:08:34.935Z,75.30
2019-01-27T16:11:03.829Z,78.50
2019-01-27T16:13:32.569Z,64.73
2019-01-27T16:16:01.302Z,55.23
2019-01-27T16:18:30.072Z,57.07
2019-01-27T16:20:58.801Z,43.20
2019-01-27T16:23:31.843Z,35.83
2019-01-27T16:26:02.203Z,33.50
2019-01-27T16:28:30.920Z,31.93
2019-01-27T16:31:01.267Z,50.40
2019-01-27T16:33:40.536Z,55.73
2019-01-27T16:36:09.261Z,64.43
2019-01-27T16:38:37.990Z,70.03
2019-01-27T16:41:06.887Z,53.47
2019-01-27T16:43:35.610Z,60.20
2019-01-27T16:46:04.434Z,65.83
2019-01-27T16:48:33.306Z,75.10
2019-01-27T16:51:02.171Z,49.70
2019-01-27T16:53:30.907Z,54.13
2019-01-27T16:55:59.719Z,39.30
2019-01-27T16:58:28.437Z,34.60
2019-01-27T17:00:57.160Z,39.90
2019-01-27T17:03:25.966Z,68.70
2019-01-27T17:05:54.795Z,74.23
2019-01-27T17:08:23.521Z,74.67
2019-01-27T17:10:52.487Z,94.57
2019-01-27T17:13:21.204Z,85.27
2019-01-27T17:15:49.927Z,59.70
2019-01-27T17:18:18.797Z,57.43
2019-01-27T17:20:47.524Z,52.53
2019-01-27T17:23:16.252Z,42.80
2019-01-27T17:25:45.442Z,41.47
2019-01-27T17:28:14.162Z,31.97
2019-01-27T17:30:42.887Z,47.90
2019-01-27T17:33:11.656Z,52.60
2019-01-27T17:35:40.393Z,46.30
2019-01-27T17:38:09.115Z,39.43
2019-01-27T17:40:38.389Z,39.77
2019-01-27T17:43:07.215Z,42.53
2019-01-27T17:45:35.940Z,44.93
2019-01-27T17:48:06.107Z,46.50
2019-01-27T17:50:34.836Z,53.07
2019-01-27T17:53:03.564Z,52.67
2019-01-27T17:55:42.739Z,60.17
2019-01-27T17:58:24.411Z,62.47
2019-01-27T18:01:11.742Z,63.43
2019-01-27T18:03:44.768Z,71.57
2019-01-27T18:06:18.507Z,81.87
2019-01-27T18:08:48.803Z,99.23
2019-01-27T18:11:21.914Z,127.97
2019-01-27T18:13:51.716Z,132.67
2019-01-27T18:16:20.450Z,148.23
2019-01-27T18:18:49.487Z,177.27
2019-01-27T18:21:18.939Z,194.83
2019-01-27T18:23:47.660Z,227.90
2019-01-27T18:26:17.484Z,254.93
2019-01-27T18:28:46.462Z,260.40
2019-01-27T18:31:15.186Z,252.47
2019-01-27T18:33:43.926Z,236.73
2019-01-27T18:36:12.791Z,251.00
2019-01-27T18:38:41.515Z,244.43
2019-01-27T18:41:10.249Z,223.00
2019-01-27T18:43:39.137Z,220.07
2019-01-27T18:46:07.869Z,194.40
2019-01-27T18:48:36.606Z,184.03
2019-01-27T18:51:06.318Z,188.97
2019-01-27T18:53:54.744Z,195.27
2019-01-27T18:56:35.652Z,187.10
2019-01-27T18:59:08.691Z,167.00
2019-01-27T19:01:39.095Z,153.20
2019-01-27T19:04:09.522Z,145.70
2019-01-27T19:06:42.765Z,146.57
2019-01-27T19:09:22.366Z,143.30
2019-01-27T19:11:55.694Z,141.70
2019-01-27T19:14:26.007Z,150.33
2019-01-27T19:16:59.606Z,143.63
2019-01-27T19:19:32.875Z,149.07
2019-01-27T19:22:03.185Z,158.77
2019-01-27T19:24:33.627Z,149.80
2019-01-27T19:27:20.351Z,144.40
2019-01-27T19:29:53.729Z,138.63
2019-01-27T19:32:24.031Z,146.50
2019-01-27T19:34:57.416Z,148.40
2019-01-27T19:37:28.182Z,145.13
2019-01-27T19:40:04.493Z,148.93
2019-01-27T19:42:37.685Z,157.97
2019-01-27T19:45:20.189Z,147.50
2019-01-27T19:47:56.837Z,139.70
2019-01-27T19:50:36.415Z,137.37
2019-01-27T19:53:07.472Z,131.07
2019-01-27T19:55:47.527Z,139.03
2019-01-27T19:58:29.941Z,155.63
2019-01-27T20:01:02.988Z,159.83
2019-01-27T20:03:39.702Z,165.07
2019-01-27T20:06:10.003Z,156.10
2019-01-27T20:08:55.452Z,147.47
2019-01-27T20:11:43.909Z,154.83
2019-01-27T20:14:14.334Z,154.50
2019-01-27T20:16:50.438Z,154.00
2019-01-27T20:19:20.915Z,155.03
2019-01-27T20:21:53.653Z,153.20
2019-01-27T20:24:29.599Z,148.30
2019-01-27T20:27:02.763Z,148.63
2019-01-27T20:29:49.522Z,147.97
2019-01-27T20:32:31.841Z,155.23
2019-01-27T20:35:18.626Z,165.63
2019-01-27T20:38:05.069Z,201.63
2019-01-27T20:40:41.636Z,188.63
2019-01-27T20:43:14.750Z,198.90
2019-01-27T20:45:45.087Z,201.20
2019-01-27T20:48:31.554Z,197.37
2019-01-27T20:51:13.992Z,180.50
2019-01-27T20:53:53.387Z,168.63
2019-01-27T20:56:29.899Z,148.50
2019-01-27T20:59:03.296Z,138.87
2019-01-27T21:01:42.676Z,125.47
2019-01-27T21:04:15.722Z,127.10
2019-01-27T21:06:46.024Z,111.03
2019-01-27T21:09:31.412Z,107.83
2019-01-27T21:12:01.721Z,107.70
2019-01-27T21:14:32.014Z,105.20
2019-01-27T21:17:05.578Z,101.40
2019-01-27T21:19:35.875Z,93.33
2019-01-27T21:22:04.703Z,98.10
2019-01-27T21:24:33.667Z,95.20
2019-01-27T21:27:06.488Z,92.93
2019-01-27T21:29:32.837Z,96.87
2019-01-27T21:32:02.077Z,104.87
2019-01-27T21:34:30.815Z,104.33
2019-01-27T21:36:59.542Z,100.43
2019-01-27T21:39:28.425Z,112.67
2019-01-27T21:41:57.293Z,108.13
2019-01-27T21:44:26.024Z,110.47
2019-01-27T21:46:54.794Z,108.00
2019-01-27T21:49:23.523Z,99.50
2019-01-27T21:51:52.256Z,100.57
2019-01-27T21:54:21.376Z,83.30
2019-01-27T21:56:50.106Z,81.53
2019-01-27T21:59:18.831Z,69.60
2019-01-27T22:01:47.625Z,60.60
2019-01-27T22:04:16.350Z,77.43
2019-01-27T22:06:45.071Z,77.43
2019-01-27T22:09:13.961Z,68.63
2019-01-27T22:11:42.691Z,51.17
2019-01-27T22:14:11.465Z,39.80
2019-01-27T22:16:41.336Z,47.00
2019-01-27T22:19:10.055Z,46.50
2019-01-27T22:21:38.775Z,42.23
2019-01-27T22:24:07.608Z,32.80
2019-01-27T22:26:36.322Z,30.77
2019-01-27T22:29:05.136Z,26.57
2019-01-27T22:31:33.895Z,23.07
2019-01-27T22:34:02.618Z,21.70
2019-01-27T22:36:37.152Z,22.63
2019-01-27T22:39:08.415Z,22.07
2019-01-27T22:41:37.134Z,22.43
2019-01-27T22:44:06.107Z,22.03
2019-01-27T22:46:34.877Z,22.87
2019-01-27T22:49:03.691Z,25.97
2019-01-27T22:51:32.433Z,24.93
2019-01-27T22:54:01.314Z,24.47
2019-01-27T22:56:30.045Z,24.67
2019-01-27T22:58:58.770Z,25.03
2019-01-27T23:01:27.929Z,28.03
2019-01-27T23:03:56.652Z,24.20
2019-01-27T23:06:25.379Z,27.33
2019-01-27T23:08:54.144Z,29.20
2019-01-27T23:11:22.876Z,27.57
2019-01-27T23:13:51.597Z,28.27
2019-01-27T23:16:20.802Z,28.17
2019-01-27T23:18:49.529Z,30.30
2019-01-27T23:21:18.264Z,40.13
2019-01-27T23:23:47.065Z,43.17
2019-01-27T23:26:15.796Z,52.20
2019-01-27T23:28:44.525Z,50.73
2019-01-27T23:31:13.415Z,53.77
2019-01-27T23:33:42.152Z,53.70
2019-01-27T23:36:10.878Z,49.30
2019-01-27T23:38:39.679Z,45.73
2019-01-27T23:41:08.400Z,49.03
2019-01-27T23:43:37.131Z,51.80
2019-01-27T23:46:06.353Z,51.73
2019-01-27T23:48:35.084Z,53.90
2019-01-27T23:51:03.811Z,56.20
2019-01-27T23:53:32.768Z,60.33
2019-01-27T23:56:01.494Z,59.33
2019-01-27T23:58:30.242Z,59.53
